Time;durP1;ratioP1;P1;durP2;ratioP2;P2;SDS_P1;SDS_P2;PMS_P1;PMS_P2;Temp;Humidity;BMP_temperature;BMP_pressure;BME280_temperature;BME280_humidity;BME280_pressure;Samples;Min_cycle;Max_cycle;Signal;HPM_P1;HPM_P2
2022/03/24 00:00:38;;;;;;;29.92;8.50;;;4.60;99.90;;;;;;5141927;27;20034;-65
2022/03/24 00:03:07;;;;;;;24.20;8.93;;;4.50;99.90;;;;;;5138908;27;20045;-64
2022/03/24 00:05:34;;;;;;;17.85;7.65;;;4.60;99.90;;;;;;5141592;27;20477;-65
2022/03/24 00:08:00;;;;;;;24.17;8.55;;;4.50;99.90;;;;;;5142555;27;20031;-64
2022/03/24 00:10:26;;;;;;;21.23;9.10;;;4.30;99.90;;;;;;5140938;27;20031;-65
2022/03/24 00:12:51;;;;;;;27.55;9.10;;;4.30;99.90;;;;;;5148433;27;20034;-64
2022/03/24 00:15:17;;;;;;;27.85;9.73;;;4.30;99.90;;;;;;5143287;27;20558;-64
2022/03/24 00:17:43;;;;;;;17.02;7.70;;;4.30;99.90;;;;;;5140998;27;20712;-65
2022/03/24 00:20:11;;;;;;;22.42;8.70;;;4.30;99.90;;;;;;5142910;27;20542;-65
2022/03/24 00:22:37;;;;;;;25.67;9.45;;;4.40;99.90;;;;;;5145571;27;20018;-64
2022/03/24 00:25:04;;;;;;;29.52;9.15;;;4.60;99.90;;;;;;5140026;27;20038;-64
2022/03/24 00:27:30;;;;;;;19.00;8.93;;;4.60;99.90;;;;;;5148683;27;20041;-64
2022/03/24 00:29:56;;;;;;;23.38;8.95;;;4.40;99.90;;;;;;5138829;27;20043;-65
2022/03/24 00:32:21;;;;;;;22.48;8.70;;;4.70;99.90;;;;;;5116754;27;20395;-65
2022/03/24 00:34:47;;;;;;;14.70;7.85;;;4.90;99.90;;;;;;5136871;27;20550;-65
2022/03/24 00:37:13;;;;;;;27.60;7.63;;;4.80;99.90;;;;;;5134131;27;20015;-65
2022/03/24 00:39:40;;;;;;;17.55;8.73;;;5.00;99.90;;;;;;5115945;27;20034;-65
2022/03/24 00:42:07;;;;;;;26.20;8.02;;;5.10;99.90;;;;;;5136237;27;20090;-65
2022/03/24 00:44:33;;;;;;;17.42;7.22;;;4.90;99.90;;;;;;5132475;27;20036;-65
2022/03/24 00:46:58;;;;;;;21.77;7.95;;;4.70;99.90;;;;;;5138550;27;20062;-65
2022/03/24 00:49:25;;;;;;;30.35;7.68;;;4.60;99.90;;;;;;5134039;27;20027;-65
2022/03/24 00:51:50;;;;;;;23.85;6.70;;;4.40;99.90;;;;;;5139968;27;20085;-65
2022/03/24 00:54:18;;;;;;;22.85;7.13;;;4.30;99.90;;;;;;5110914;27;20829;-65
2022/03/24 00:56:45;;;;;;;30.83;8.93;;;4.30;99.90;;;;;;5136778;27;20093;-65
2022/03/24 00:59:11;;;;;;;19.25;7.78;;;4.20;99.90;;;;;;5140654;27;20024;-65
2022/03/24 01:01:39;;;;;;;17.88;8.50;;;4.00;99.90;;;;;;5134249;27;20033;-65
2022/03/24 01:04:06;;;;;;;20.00;8.60;;;4.00;99.90;;;;;;5120073;27;20033;-66
2022/03/24 01:06:34;;;;;;;22.95;7.20;;;3.90;99.90;;;;;;5129930;27;20019;-65
2022/03/24 01:09:03;;;;;;;20.95;6.97;;;3.90;99.90;;;;;;5122244;27;20041;-64
2022/03/24 01:11:29;;;;;;;19.43;7.40;;;4.10;99.90;;;;;;5136227;27;20038;-65
2022/03/24 01:13:54;;;;;;;18.23;6.53;;;4.10;99.90;;;;;;5137053;27;20038;-65
2022/03/24 01:16:23;;;;;;;25.05;7.97;;;4.00;99.90;;;;;;5134100;27;20030;-65
2022/03/24 01:18:49;;;;;;;20.67;8.65;;;3.90;99.90;;;;;;5117857;27;20104;-65
2022/03/24 01:21:16;;;;;;;19.35;6.20;;;3.90;99.90;;;;;;5117458;27;20420;-65
2022/03/24 01:23:44;;;;;;;21.30;6.82;;;3.90;99.90;;;;;;5140833;27;20022;-65
2022/03/24 01:26:11;;;;;;;18.67;7.78;;;3.80;99.90;;;;;;5114848;27;20080;-65
2022/03/24 01:28:38;;;;;;;18.63;6.60;;;3.80;99.90;;;;;;5143834;27;20041;-65
2022/03/24 01:31:03;;;;;;;16.10;8.60;;;3.70;99.90;;;;;;5134507;27;20019;-65
2022/03/24 01:33:29;;;;;;;26.60;8.73;;;3.70;99.90;;;;;;5124806;27;20034;-65
2022/03/24 01:35:55;;;;;;;19.52;7.95;;;3.60;99.90;;;;;;5135765;27;20022;-65
2022/03/24 01:38:22;;;;;;;18.50;8.77;;;3.50;99.90;;;;;;5134725;27;20023;-65
2022/03/24 01:40:48;;;;;;;20.95;7.32;;;3.40;99.90;;;;;;5118752;27;20028;-65
2022/03/24 01:43:14;;;;;;;16.75;7.53;;;3.60;99.90;;;;;;5136767;27;20023;-65
2022/03/24 01:45:40;;;;;;;18.70;7.63;;;3.50;99.90;;;;;;5127332;27;20026;-65
2022/03/24 01:48:10;;;;;;;23.50;8.70;;;3.50;99.90;;;;;;5136440;27;20075;-65
2022/03/24 01:50:36;;;;;;;13.93;6.68;;;3.60;99.90;;;;;;5142705;27;20034;-65
2022/03/24 01:53:02;;;;;;;17.48;7.63;;;3.70;99.90;;;;;;5134537;27;20023;-65
2022/03/24 01:55:28;;;;;;;22.27;8.27;;;3.60;99.90;;;;;;5143690;27;20054;-65
2022/03/24 01:57:55;;;;;;;22.88;8.57;;;3.60;99.90;;;;;;5131161;27;20038;-65
2022/03/24 02:00:20;;;;;;;20.38;8.18;;;3.50;99.90;;;;;;5136386;27;20034;-65
2022/03/24 02:02:46;;;;;;;20.50;7.72;;;3.40;99.90;;;;;;5137806;27;20479;-65
2022/03/24 02:05:12;;;;;;;26.13;8.52;;;3.30;99.90;;;;;;5136162;27;20027;-66
2022/03/24 02:07:38;;;;;;;17.85;8.52;;;3.30;99.90;;;;;;5133521;27;20034;-66
2022/03/24 02:10:11;;;;;;;23.40;8.07;;;3.20;99.90;;;;;;5144710;27;20110;-66
2022/03/24 02:12:37;;;;;;;19.10;6.75;;;3.30;99.90;;;;;;5148647;27;20026;-66
2022/03/24 02:15:04;;;;;;;20.00;7.45;;;3.30;99.90;;;;;;5137956;27;20023;-65
2022/03/24 02:17:30;;;;;;;25.15;9.05;;;3.40;99.90;;;;;;5141709;27;20027;-65
2022/03/24 02:19:59;;;;;;;19.65;5.80;;;3.40;99.90;;;;;;5134864;27;20549;-65
2022/03/24 02:22:28;;;;;;;18.63;7.45;;;3.30;99.90;;;;;;5144106;27;20027;-65
2022/03/24 02:24:54;;;;;;;21.25;8.07;;;3.20;99.90;;;;;;5138592;27;21440;-65
2022/03/24 02:27:19;;;;;;;23.20;6.70;;;3.20;99.90;;;;;;5121466;27;20027;-65
2022/03/24 02:29:48;;;;;;;20.88;7.03;;;3.10;99.90;;;;;;5137162;27;20121;-65
2022/03/24 02:32:20;;;;;;;27.15;6.20;;;3.10;99.90;;;;;;5144317;27;20026;-65
2022/03/24 02:34:51;;;;;;;12.88;4.90;;;3.00;99.90;;;;;;5141871;27;20061;-65
2022/03/24 02:37:22;;;;;;;21.05;6.95;;;3.00;99.90;;;;;;5136660;27;20027;-65
2022/03/24 02:39:53;;;;;;;15.85;6.38;;;2.90;99.90;;;;;;5148881;27;20031;-65
2022/03/24 02:42:21;;;;;;;17.50;6.55;;;3.00;99.90;;;;;;5138825;27;20026;-65
2022/03/24 02:44:53;;;;;;;20.75;6.88;;;2.90;99.90;;;;;;5140646;27;20038;-65
2022/03/24 02:47:19;;;;;;;16.55;6.80;;;2.70;99.90;;;;;;5146139;27;20120;-65
2022/03/24 02:49:47;;;;;;;34.30;6.65;;;3.00;99.90;;;;;;5137761;27;20026;-65
2022/03/24 02:52:13;;;;;;;17.80;6.40;;;3.40;99.90;;;;;;5139348;27;20027;-65
2022/03/24 02:54:40;;;;;;;14.05;5.07;;;3.40;99.90;;;;;;5135058;27;20084;-65
2022/03/24 02:57:06;;;;;;;18.52;7.78;;;3.20;99.90;;;;;;5144892;27;20025;-65
2022/03/24 02:59:33;;;;;;;15.43;5.80;;;3.10;99.90;;;;;;5138974;27;20026;-65
2022/03/24 03:02:01;;;;;;;14.77;6.05;;;3.00;99.90;;;;;;5124251;27;20038;-65
2022/03/24 03:04:28;;;;;;;18.58;6.88;;;3.50;99.90;;;;;;5145174;27;20035;-65
2022/03/24 03:06:54;;;;;;;18.92;7.78;;;3.50;99.90;;;;;;5131188;27;20023;-65
2022/03/24 03:09:21;;;;;;;17.95;6.63;;;3.50;99.90;;;;;;5132893;27;20587;-65
2022/03/24 03:11:48;;;;;;;21.70;5.97;;;3.40;99.90;;;;;;5139144;27;20030;-65
2022/03/24 03:14:15;;;;;;;14.02;7.32;;;3.50;99.90;;;;;;5151564;27;20027;-65
2022/03/24 03:16:41;;;;;;;15.75;6.28;;;3.60;99.90;;;;;;5121650;27;20029;-65
2022/03/24 03:19:08;;;;;;;17.38;6.25;;;3.60;99.90;;;;;;5136864;27;20649;-65
2022/03/24 03:21:36;;;;;;;21.20;8.25;;;3.80;99.90;;;;;;5138158;27;20026;-65
2022/03/24 03:24:05;;;;;;;19.17;7.30;;;3.60;99.90;;;;;;5142648;27;20015;-65
2022/03/24 03:26:31;;;;;;;18.70;5.73;;;3.40;99.90;;;;;;5129061;27;20117;-67
2022/03/24 03:28:57;;;;;;;18.65;7.22;;;3.20;99.90;;;;;;5143067;27;20129;-66
2022/03/24 03:31:23;;;;;;;32.53;8.00;;;3.00;99.90;;;;;;5136488;27;20023;-66
2022/03/24 03:33:53;;;;;;;14.02;5.60;;;2.90;99.90;;;;;;5125472;27;20050;-66
2022/03/24 03:36:20;;;;;;;14.75;4.75;;;2.90;99.90;;;;;;5141829;27;20498;-64
2022/03/24 03:38:46;;;;;;;22.35;7.90;;;3.00;99.90;;;;;;5141568;27;20102;-67
2022/03/24 03:41:15;;;;;;;21.52;5.22;;;2.90;99.90;;;;;;5114860;27;20131;-67
2022/03/24 03:43:42;;;;;;;20.38;6.75;;;2.80;99.90;;;;;;5141842;27;20066;-67
2022/03/24 03:46:08;;;;;;;20.95;7.10;;;2.70;99.90;;;;;;5139066;27;20435;-66
2022/03/24 03:48:38;;;;;;;16.38;5.63;;;2.80;99.90;;;;;;5139338;27;20393;-66
2022/03/24 03:51:05;;;;;;;14.40;6.05;;;2.70;99.90;;;;;;5144530;27;20093;-66
2022/03/24 03:53:30;;;;;;;14.68;6.43;;;2.70;99.90;;;;;;5139881;27;20039;-66
2022/03/24 03:55:56;;;;;;;16.42;6.75;;;2.70;99.90;;;;;;5136806;27;20513;-66
2022/03/24 03:58:22;;;;;;;18.60;7.65;;;3.70;99.90;;;;;;5136797;27;20027;-66
2022/03/24 04:00:55;;;;;;;15.13;6.28;;;2.60;99.90;;;;;;5135892;27;20063;-66
2022/03/24 04:03:32;;;;;;;15.95;5.88;;;2.60;99.90;;;;;;5141305;27;20115;-66
2022/03/24 04:06:00;;;;;;;19.17;6.65;;;2.50;99.90;;;;;;5151875;27;20041;-66
2022/03/24 04:08:28;;;;;;;12.95;6.68;;;2.50;99.90;;;;;;5137098;27;20049;-66
2022/03/24 04:10:54;;;;;;;19.25;8.00;;;2.50;99.90;;;;;;5136223;27;20035;-66
2022/03/24 04:13:21;;;;;;;24.50;8.57;;;2.40;99.90;;;;;;5142930;27;20025;-66
2022/03/24 04:15:48;;;;;;;19.38;5.60;;;2.40;99.90;;;;;;5149252;27;20035;-66
2022/03/24 04:18:14;;;;;;;15.65;5.90;;;2.40;99.90;;;;;;5142285;27;20398;-66
2022/03/24 04:20:41;;;;;;;22.85;7.53;;;2.20;99.90;;;;;;5151166;27;20027;-66
2022/03/24 04:23:07;;;;;;;15.23;6.00;;;2.20;99.90;;;;;;5137487;27;20468;-66
2022/03/24 04:25:33;;;;;;;16.15;6.22;;;2.10;99.90;;;;;;5141303;27;20743;-66
2022/03/24 04:28:00;;;;;;;19.05;6.53;;;2.10;99.90;;;;;;5132516;27;20088;-66
2022/03/24 04:30:26;;;;;;;17.38;7.32;;;2.20;99.90;;;;;;5137674;27;20081;-67
2022/03/24 04:32:53;;;;;;;17.88;6.78;;;2.10;99.90;;;;;;5147301;27;20037;-66
2022/03/24 04:35:20;;;;;;;18.33;6.80;;;2.00;99.90;;;;;;5125741;27;20141;-66
2022/03/24 04:37:46;;;;;;;18.20;6.05;;;2.00;99.90;;;;;;5149014;27;20103;-66
2022/03/24 04:40:16;;;;;;;22.88;8.73;;;2.00;99.90;;;;;;5140131;27;20752;-66
2022/03/24 04:42:42;;;;;;;19.55;6.53;;;2.30;99.90;;;;;;5138349;27;20031;-66
2022/03/24 04:45:09;;;;;;;18.20;6.28;;;2.20;99.90;;;;;;5139843;27;20087;-66
2022/03/24 04:47:35;;;;;;;17.02;7.05;;;2.20;99.90;;;;;;5139003;27;20043;-66
2022/03/24 04:50:01;;;;;;;15.50;6.75;;;2.30;99.90;;;;;;5135635;27;20440;-64
2022/03/24 04:52:27;;;;;;;19.95;5.28;;;2.40;99.90;;;;;;5153250;27;20023;-66
2022/03/24 04:54:52;;;;;;;15.95;6.43;;;2.30;99.90;;;;;;5122936;27;20023;-66
2022/03/24 04:57:18;;;;;;;28.55;6.20;;;2.20;99.90;;;;;;5144722;27;20066;-66
2022/03/24 04:59:43;;;;;;;26.73;5.38;;;2.10;99.90;;;;;;5138026;27;20542;-66
2022/03/24 05:02:15;;;;;;;14.45;5.50;;;2.00;99.90;;;;;;5118900;27;20046;-66
2022/03/24 05:04:41;;;;;;;14.85;5.65;;;2.00;99.90;;;;;;5137788;27;20029;-66
2022/03/24 05:07:08;;;;;;;19.48;6.18;;;2.00;99.90;;;;;;5142707;27;20025;-66
2022/03/24 05:09:33;;;;;;;11.10;5.65;;;1.90;99.90;;;;;;5136713;27;20091;-66
2022/03/24 05:11:59;;;;;;;12.95;5.13;;;1.80;99.90;;;;;;5134583;27;20019;-66
2022/03/24 05:14:25;;;;;;;24.10;6.07;;;1.80;99.90;;;;;;5117318;27;20034;-66
2022/03/24 05:16:50;;;;;;;20.10;7.38;;;1.80;99.90;;;;;;5134887;27;20022;-66
2022/03/24 05:19:16;;;;;;;16.48;6.93;;;1.80;99.90;;;;;;5136537;27;20474;-66
2022/03/24 05:21:41;;;;;;;17.02;6.43;;;1.80;99.90;;;;;;5139044;27;20027;-66
2022/03/24 05:24:07;;;;;;;13.77;6.18;;;1.70;99.90;;;;;;5132838;27;20031;-65
2022/03/24 05:26:33;;;;;;;22.40;7.32;;;1.70;99.90;;;;;;5137314;27;20066;-65
2022/03/24 05:28:58;;;;;;;15.85;6.30;;;1.70;99.90;;;;;;5132213;27;20100;-65
2022/03/24 05:31:26;;;;;;;15.40;6.15;;;1.70;99.90;;;;;;5130542;27;20038;-66
2022/03/24 05:33:51;;;;;;;20.90;5.50;;;1.80;99.90;;;;;;5132606;27;20030;-66
2022/03/24 05:36:17;;;;;;;17.25;6.57;;;1.70;99.90;;;;;;5131730;27;20027;-66
2022/03/24 05:38:43;;;;;;;10.95;6.32;;;1.70;99.90;;;;;;5133898;27;20679;-65
2022/03/24 05:41:10;;;;;;;14.57;6.13;;;1.80;99.90;;;;;;5134585;27;20023;-65
2022/03/24 05:43:36;;;;;;;16.30;6.63;;;1.90;99.90;;;;;;5133700;27;20443;-65
2022/03/24 05:46:02;;;;;;;23.20;7.05;;;1.90;99.90;;;;;;5134210;27;20118;-65
2022/03/24 05:48:27;;;;;;;18.70;5.90;;;2.00;99.90;;;;;;5118762;27;20106;-66
2022/03/24 05:50:53;;;;;;;16.45;6.10;;;2.00;99.90;;;;;;5134015;27;20031;-66
2022/03/24 05:53:19;;;;;;;17.30;6.35;;;2.10;99.90;;;;;;5134495;27;20074;-66
2022/03/24 05:55:44;;;;;;;19.50;6.65;;;2.00;99.90;;;;;;5112867;27;20473;-65
2022/03/24 05:58:11;;;;;;;21.27;7.07;;;2.00;99.90;;;;;;5131226;27;20053;-66
2022/03/24 06:00:39;;;;;;;16.45;6.00;;;2.10;99.90;;;;;;5133209;27;20052;-65
2022/03/24 06:03:05;;;;;;;17.95;5.60;;;2.20;99.90;;;;;;5140133;27;20598;-65
2022/03/24 06:05:31;;;;;;;15.00;5.60;;;2.30;99.90;;;;;;5138151;27;20412;-66
2022/03/24 06:08:01;;;;;;;16.60;6.82;;;2.30;99.90;;;;;;5138723;27;20038;-65
2022/03/24 06:10:27;;;;;;;21.65;6.68;;;2.30;99.90;;;;;;5136869;27;20555;-65
2022/03/24 06:12:53;;;;;;;30.77;7.63;;;2.30;99.90;;;;;;5133006;27;20100;-65
2022/03/24 06:15:19;;;;;;;16.05;5.93;;;2.40;99.90;;;;;;5130078;27;20019;-65
2022/03/24 06:17:45;;;;;;;17.65;7.35;;;2.50;99.90;;;;;;5143558;27;20023;-65
2022/03/24 06:20:11;;;;;;;14.52;6.93;;;2.80;99.90;;;;;;5138101;27;20020;-65
2022/03/24 06:22:48;;;;;;;19.17;8.00;;;3.30;99.90;;;;;;5144644;27;20741;-65
2022/03/24 06:25:13;;;;;;;16.73;7.55;;;3.60;99.90;;;;;;5147463;27;20078;-65
2022/03/24 06:27:39;;;;;;;16.75;7.07;;;3.90;99.90;;;;;;5117018;27;20406;-65
2022/03/24 06:30:06;;;;;;;18.48;8.07;;;4.00;99.90;;;;;;5121364;27;20570;-65
2022/03/24 06:32:32;;;;;;;18.25;6.80;;;4.00;99.90;;;;;;5137606;27;20155;-65
2022/03/24 06:34:58;;;;;;;20.15;8.48;;;3.90;99.90;;;;;;5141783;27;20038;-65
2022/03/24 06:37:23;;;;;;;13.50;6.25;;;3.90;99.90;;;;;;5145608;27;20023;-65
2022/03/24 06:39:49;;;;;;;21.52;7.90;;;3.90;99.90;;;;;;5141487;27;20034;-65
2022/03/24 06:42:16;;;;;;;20.48;7.43;;;4.10;99.90;;;;;;5145974;27;20034;-65
2022/03/24 06:44:41;;;;;;;16.50;7.75;;;4.10;99.90;;;;;;5139113;27;20079;-66
2022/03/24 06:47:07;;;;;;;17.67;6.95;;;4.10;99.90;;;;;;5138990;27;20475;-67
2022/03/24 06:49:33;;;;;;;14.32;6.97;;;4.20;99.90;;;;;;5134033;27;20031;-66
2022/03/24 06:51:58;;;;;;;18.77;7.28;;;4.30;99.90;;;;;;5136768;27;20023;-66
2022/03/24 06:54:24;;;;;;;18.92;7.85;;;4.50;99.90;;;;;;5146020;27;20041;-65
2022/03/24 06:56:50;;;;;;;22.27;8.02;;;4.60;99.90;;;;;;5135160;27;20038;-65
2022/03/24 06:59:16;;;;;;;19.58;8.43;;;4.70;99.90;;;;;;5125114;27;20023;-65
2022/03/24 07:01:42;;;;;;;21.10;7.53;;;4.90;99.90;;;;;;5137371;27;20022;-65
2022/03/24 07:04:08;;;;;;;25.40;10.60;;;5.00;99.90;;;;;;5130225;27;20023;-65
2022/03/24 07:06:34;;;;;;;23.35;9.13;;;5.10;99.90;;;;;;5132944;27;20058;-65
2022/03/24 07:09:00;;;;;;;21.02;8.80;;;5.30;99.90;;;;;;5121099;27;20050;-65
2022/03/24 07:11:25;;;;;;;28.42;10.57;;;5.40;99.90;;;;;;5132031;27;20075;-65
2022/03/24 07:13:51;;;;;;;36.97;9.30;;;5.50;99.90;;;;;;5144690;27;20034;-65
2022/03/24 07:16:17;;;;;;;23.83;8.88;;;5.70;99.90;;;;;;5133070;27;20360;-66
2022/03/24 07:18:43;;;;;;;18.20;9.43;;;5.80;99.90;;;;;;5121144;27;20097;-65
2022/03/24 07:21:10;;;;;;;23.95;8.52;;;6.00;99.90;;;;;;5133377;27;20481;-66
2022/03/24 07:23:36;;;;;;;27.58;8.52;;;6.10;99.90;;;;;;5119041;27;20959;-66
2022/03/24 07:26:02;;;;;;;22.23;9.02;;;6.30;99.90;;;;;;5139300;27;20092;-65
2022/03/24 07:28:28;;;;;;;28.25;9.45;;;6.40;99.90;;;;;;5145761;27;20046;-66
2022/03/24 07:30:53;;;;;;;25.70;8.82;;;6.70;99.90;;;;;;5133227;27;20629;-66
2022/03/24 07:33:20;;;;;;;35.45;10.07;;;6.90;99.90;;;;;;5138854;27;20110;-66
2022/03/24 07:35:46;;;;;;;28.73;8.98;;;7.10;99.90;;;;;;5135092;27;20177;-66
2022/03/24 07:38:13;;;;;;;25.95;9.60;;;7.40;99.90;;;;;;5117165;27;20044;-64
2022/03/24 07:40:38;;;;;;;26.20;10.10;;;7.50;99.90;;;;;;5133531;27;20015;-64
2022/03/24 07:43:05;;;;;;;23.52;9.70;;;7.70;99.90;;;;;;5134805;27;20079;-66
2022/03/24 07:45:37;;;;;;;25.35;8.77;;;7.90;99.90;;;;;;5139951;27;20118;-66
2022/03/24 07:48:12;;;;;;;28.55;9.88;;;8.10;99.90;;;;;;5142309;27;20562;-66
2022/03/24 07:50:43;;;;;;;23.13;7.75;;;8.30;99.90;;;;;;5118384;27;20027;-66
2022/03/24 07:53:12;;;;;;;36.40;9.93;;;8.50;99.90;;;;;;5138632;27;20023;-66
2022/03/24 07:55:40;;;;;;;21.55;8.10;;;8.70;99.90;;;;;;5127415;27;20107;-66
2022/03/24 07:58:06;;;;;;;27.92;9.05;;;8.90;99.90;;;;;;5140685;27;20023;-65
2022/03/24 08:00:32;;;;;;;24.85;9.10;;;9.10;99.90;;;;;;5135547;27;20089;-65
2022/03/24 08:02:57;;;;;;;26.63;9.88;;;9.20;99.90;;;;;;5139082;27;20035;-66
2022/03/24 08:05:23;;;;;;;26.70;9.20;;;9.40;99.90;;;;;;5136176;27;20102;-66
2022/03/24 08:07:48;;;;;;;26.13;9.77;;;9.50;99.90;;;;;;5138196;27;20099;-66
2022/03/24 08:10:14;;;;;;;27.08;8.68;;;9.70;99.90;;;;;;5142353;27;20135;-65
2022/03/24 08:12:40;;;;;;;26.83;8.55;;;9.80;99.90;;;;;;5138799;27;20041;-66
2022/03/24 08:15:05;;;;;;;28.27;9.60;;;9.90;99.90;;;;;;5130801;27;20041;-66
2022/03/24 08:17:31;;;;;;;30.17;9.82;;;10.00;99.90;;;;;;5128033;27;20493;-66
2022/03/24 08:19:57;;;;;;;29.85;10.15;;;10.20;99.90;;;;;;5145769;27;20498;-66
2022/03/24 08:22:23;;;;;;;28.30;10.00;;;10.40;99.90;;;;;;5140816;27;20018;-66
2022/03/24 08:24:49;;;;;;;28.02;9.30;;;10.60;99.90;;;;;;5135949;27;20394;-66
2022/03/24 08:27:15;;;;;;;26.42;10.00;;;10.70;99.90;;;;;;5133195;27;20030;-66
2022/03/24 08:29:40;;;;;;;35.33;10.05;;;10.70;99.30;;;;;;5138093;27;20573;-66
2022/03/24 08:32:07;;;;;;;27.95;9.88;;;10.90;99.10;;;;;;5123247;27;20049;-66
2022/03/24 08:34:33;;;;;;;31.30;11.07;;;11.40;98.80;;;;;;5123958;27;20022;-66
2022/03/24 08:36:59;;;;;;;30.55;10.50;;;11.80;97.30;;;;;;5145211;27;20154;-66
2022/03/24 08:39:25;;;;;;;31.23;9.55;;;12.20;95.90;;;;;;5134878;27;20062;-66
2022/03/24 08:41:51;;;;;;;31.98;9.52;;;12.40;95.10;;;;;;5138101;27;20029;-66
2022/03/24 08:44:16;;;;;;;25.88;10.38;;;13.20;94.80;;;;;;5134005;27;20019;-66
2022/03/24 08:46:42;;;;;;;30.73;9.77;;;13.70;92.30;;;;;;5141927;27;20195;-64
2022/03/24 08:49:08;;;;;;;24.60;11.20;;;14.00;91.10;;;;;;5134198;27;20023;-63
2022/03/24 08:51:34;;;;;;;30.42;11.32;;;14.50;88.70;;;;;;5143717;27;20097;-66
2022/03/24 08:54:00;;;;;;;26.83;10.65;;;14.90;87.80;;;;;;5143352;27;20019;-66
2022/03/24 08:56:25;;;;;;;33.53;10.98;;;15.10;87.90;;;;;;5120367;27;20037;-66
2022/03/24 08:58:51;;;;;;;28.17;9.82;;;15.80;85.70;;;;;;5124350;27;20134;-66
2022/03/24 09:01:19;;;;;;;31.95;11.43;;;16.50;83.00;;;;;;5143531;27;20134;-66
2022/03/24 09:03:45;;;;;;;29.92;10.90;;;16.70;80.80;;;;;;5149370;27;20371;-66
2022/03/24 09:06:10;;;;;;;34.45;11.43;;;17.10;79.00;;;;;;5145511;27;20029;-66
2022/03/24 09:08:36;;;;;;;29.60;10.52;;;16.40;79.00;;;;;;5144111;27;20608;-66
2022/03/24 09:11:02;;;;;;;35.38;11.45;;;17.10;78.40;;;;;;5140236;27;20727;-66
2022/03/24 09:13:28;;;;;;;29.92;11.25;;;16.50;80.90;;;;;;5142447;27;20102;-66
2022/03/24 09:15:53;;;;;;;31.58;10.65;;;16.90;78.70;;;;;;5140719;27;20541;-66
2022/03/24 09:18:19;;;;;;;31.13;11.15;;;18.30;76.90;;;;;;5136969;27;20383;-67
2022/03/24 09:20:45;;;;;;;31.23;11.13;;;18.60;73.80;;;;;;5136092;27;20091;-66
2022/03/24 09:23:11;;;;;;;33.42;11.45;;;19.50;72.40;;;;;;5142491;27;20107;-66
2022/03/24 09:25:38;;;;;;;35.67;12.05;;;20.60;68.50;;;;;;5144434;27;20451;-67
2022/03/24 09:28:04;;;;;;;34.28;10.80;;;18.90;70.20;;;;;;5136534;27;20039;-67
2022/03/24 09:30:30;;;;;;;29.58;10.80;;;17.90;73.80;;;;;;5133841;27;20510;-67
2022/03/24 09:32:55;;;;;;;31.50;11.32;;;19.70;71.80;;;;;;5117664;27;20114;-68
2022/03/24 09:35:21;;;;;;;35.92;13.88;;;19.90;69.70;;;;;;5141263;27;20062;-67
2022/03/24 09:37:47;;;;;;;35.08;12.57;;;19.40;68.00;;;;;;5122530;27;20023;-67
2022/03/24 09:40:13;;;;;;;31.05;10.88;;;19.10;67.80;;;;;;5142447;27;20525;-67
2022/03/24 09:42:39;;;;;;;36.70;12.43;;;19.30;68.30;;;;;;5138342;27;20023;-67
2022/03/24 09:45:06;;;;;;;34.92;12.73;;;18.30;69.90;;;;;;5128923;27;20064;-67
2022/03/24 09:47:33;;;;;;;34.42;12.27;;;18.50;71.00;;;;;;5139501;27;20022;-67
2022/03/24 09:49:59;;;;;;;38.65;13.75;;;18.60;68.90;;;;;;5140769;27;20026;-67
2022/03/24 09:52:26;;;;;;;31.55;11.23;;;17.50;71.10;;;;;;5142391;27;20041;-67
2022/03/24 09:54:52;;;;;;;40.83;13.30;;;18.40;68.90;;;;;;5137292;27;20114;-66
2022/03/24 09:57:17;;;;;;;32.92;13.05;;;17.20;70.00;;;;;;5151408;27;20400;-67
2022/03/24 09:59:45;;;;;;;33.38;13.48;;;16.90;72.00;;;;;;5144640;27;20035;-67
2022/03/24 10:02:12;;;;;;;34.92;11.95;;;16.90;70.80;;;;;;5142226;27;20555;-67
2022/03/24 10:04:48;;;;;;;34.55;12.15;;;17.60;69.30;;;;;;5144073;27;20075;-67
2022/03/24 10:07:15;;;;;;;34.60;11.88;;;18.70;69.10;;;;;;5127554;27;20023;-67
2022/03/24 10:09:49;;;;;;;39.05;12.32;;;17.90;73.00;;;;;;5142505;27;20022;-67
2022/03/24 10:12:21;;;;;;;38.03;12.88;;;18.80;69.00;;;;;;5141269;27;20560;-67
2022/03/24 10:15:04;;;;;;;36.53;12.80;;;18.40;67.50;;;;;;5136332;27;20031;-67
2022/03/24 10:17:31;;;;;;;34.50;12.25;;;18.20;67.70;;;;;;5117059;27;20083;-66
2022/03/24 10:20:05;;;;;;;34.25;12.20;;;19.70;67.40;;;;;;5126904;27;20030;-67
2022/03/24 10:22:32;;;;;;;39.53;12.07;;;22.20;64.00;;;;;;5142131;27;20023;-67
2022/03/24 10:24:59;;;;;;;33.65;12.93;;;21.70;60.00;;;;;;5130041;27;20182;-67
2022/03/24 10:27:28;;;;;;;37.53;13.25;;;20.80;62.50;;;;;;5122954;27;20031;-67
2022/03/24 10:29:56;;;;;;;36.60;14.45;;;19.90;65.70;;;;;;5142564;27;20050;-67
2022/03/24 10:32:29;;;;;;;41.17;16.75;;;18.80;65.00;;;;;;5137609;27;20171;-67
2022/03/24 10:35:13;;;;;;;38.67;13.15;;;18.90;65.40;;;;;;5132100;27;20034;-67
2022/03/24 10:37:48;;;;;;;37.63;12.77;;;19.60;64.30;;;;;;5144764;27;20102;-67
2022/03/24 10:40:14;;;;;;;33.53;12.73;;;19.90;65.60;;;;;;5139275;27;20023;-67
2022/03/24 10:42:41;;;;;;;33.35;12.50;;;20.70;64.50;;;;;;5142163;27;20106;-67
2022/03/24 10:45:20;;;;;;;36.80;12.25;;;20.60;62.80;;;;;;5149584;27;20029;-67
2022/03/24 10:47:56;;;;;;;38.25;12.27;;;19.50;64.90;;;;;;5144432;27;20395;-67
2022/03/24 10:50:41;;;;;;;38.63;12.40;;;20.40;61.90;;;;;;5141063;27;20047;-67
2022/03/24 10:53:19;;;;;;;22.63;9.43;;;21.40;58.70;;;;;;5137448;27;20588;-67
2022/03/24 10:55:49;;;;;;;24.88;9.55;;;21.30;58.10;;;;;;5122113;27;20494;-67
2022/03/24 10:58:30;;;;;;;28.83;9.40;;;20.60;57.50;;;;;;5125033;27;20056;-67
2022/03/24 11:01:00;;;;;;;24.02;9.57;;;21.40;56.10;;;;;;5138458;27;20046;-66
2022/03/24 11:03:26;;;;;;;28.75;10.77;;;22.20;53.20;;;;;;5141641;27;20170;-66
2022/03/24 11:05:52;;;;;;;28.98;11.02;;;21.10;58.50;;;;;;5137558;27;20522;-67
2022/03/24 11:08:18;;;;;;;31.25;11.55;;;22.80;57.00;;;;;;5136913;27;20022;-67
2022/03/24 11:10:49;;;;;;;28.63;11.07;;;23.00;56.20;;;;;;5138526;27;20424;-66
2022/03/24 11:13:52;;;;;;;30.38;12.88;;;21.80;56.10;;;;;;5136710;27;20035;-66
2022/03/24 11:16:22;;;;;;;34.85;11.88;;;20.20;56.30;;;;;;5059491;28;20037;-66
2022/03/24 11:18:49;;;;;;;;;;;19.00;57.40;;;;;;5134738;27;20039;-66
2022/03/24 11:21:20;;;;;;;35.55;11.27;;;19.00;57.10;;;;;;5145342;27;19922;-66
2022/03/24 11:23:46;;;;;;;37.30;11.35;;;19.90;57.40;;;;;;5140980;27;20034;-67
2022/03/24 11:26:13;;;;;;;27.58;9.80;;;19.80;55.60;;;;;;5138249;27;20026;-67
2022/03/24 11:28:39;;;;;;;27.25;9.98;;;22.10;56.90;;;;;;5117221;27;20042;-66
2022/03/24 11:31:11;;;;;;;30.25;10.60;;;23.80;55.00;;;;;;5142279;27;20030;-67
2022/03/24 11:33:47;;;;;;;26.42;10.18;;;24.50;52.50;;;;;;5137893;27;20132;-67
2022/03/24 11:36:16;;;;;;;27.08;10.38;;;25.50;52.80;;;;;;5140441;27;20030;-67
2022/03/24 11:38:43;;;;;;;26.27;8.95;;;25.50;51.60;;;;;;5140518;27;20238;-68
2022/03/24 11:41:33;;;;;;;24.98;9.55;;;26.60;50.60;;;;;;5146303;27;20105;-67
2022/03/24 11:44:06;;;;;;;29.92;10.52;;;25.30;49.50;;;;;;5134001;27;20122;-66
2022/03/24 11:47:02;;;;;;;26.40;9.90;;;25.20;49.80;;;;;;5139664;27;20050;-66
2022/03/24 11:49:31;;;;;;;25.85;10.43;;;24.00;52.00;;;;;;5136348;27;20517;-67
2022/03/24 11:51:56;;;;;;;28.45;10.73;;;22.70;50.00;;;;;;5129645;27;20459;-66
2022/03/24 11:54:33;;;;;;;28.05;10.95;;;22.20;51.90;;;;;;5133144;27;20070;-66
2022/03/24 11:57:21;;;;;;;28.10;11.18;;;23.10;52.30;;;;;;5138502;27;20031;-66
2022/03/24 11:59:47;;;;;;;25.05;10.80;;;21.60;51.30;;;;;;5130982;27;20027;-66
2022/03/24 12:02:15;;;;;;;30.30;11.05;;;21.20;52.60;;;;;;5135854;27;20106;-66
2022/03/24 12:04:46;;;;;;;27.33;9.77;;;21.00;51.40;;;;;;5144180;27;20023;-66
2022/03/24 12:07:20;;;;;;;23.65;9.50;;;21.40;53.30;;;;;;5148622;27;20046;-66
2022/03/24 12:10:00;;;;;;;30.52;11.13;;;21.20;52.90;;;;;;5131153;27;20410;-66
2022/03/24 12:12:26;;;;;;;25.77;10.57;;;20.90;52.00;;;;;;5135404;27;20542;-66
2022/03/24 12:14:54;;;;;;;25.50;10.57;;;22.40;50.30;;;;;;5130109;27;20411;-66
2022/03/24 12:17:23;;;;;;;27.88;9.15;;;22.00;49.70;;;;;;5116266;27;20023;-66
2022/03/24 12:19:51;;;;;;;23.38;9.50;;;22.80;49.50;;;;;;5134066;27;20843;-67
2022/03/24 12:22:43;;;;;;;27.35;10.52;;;23.40;49.00;;;;;;5139036;27;20697;-67
2022/03/24 12:25:09;;;;;;;22.13;9.30;;;21.80;48.30;;;;;;5131758;27;20042;-67
2022/03/24 12:27:55;;;;;;;27.33;10.23;;;21.30;50.60;;;;;;5134223;27;20042;-67
2022/03/24 12:30:24;;;;;;;28.60;11.20;;;21.50;51.20;;;;;;5134680;27;20129;-67
2022/03/24 12:33:07;;;;;;;25.23;9.80;;;21.90;49.70;;;;;;5135821;27;20019;-67
2022/03/24 12:35:52;;;;;;;27.48;10.27;;;23.70;49.40;;;;;;5137876;27;20099;-67
2022/03/24 12:38:33;;;;;;;25.52;10.27;;;23.70;47.60;;;;;;5136584;27;20015;-67
2022/03/24 12:41:04;;;;;;;24.52;9.07;;;22.90;49.90;;;;;;5143753;27;20090;-67
2022/03/24 12:43:47;;;;;;;27.08;10.77;;;22.20;49.90;;;;;;5134777;27;20026;-67